Thunder radar more information blitzortung!


avis per Pluja more information rain snow radar


Visita la nostra xarxa de llocs de meteo:

Template documentation
and downloads

And another site



Rain From: 17-10-2018 23:00 Until: 18-10-2018 16:59 warning for: Rain Level: Yellow info button

Pagina Historial Weather Underground text

Diari Resum Marc 21, 2016 Unitats:  Mètric    Imperial   Tant
« Previous Dia
SegĂźent Dia »
Diari Setmana Mensual Anual Personalitzada
  Maxima: Minima: Media:
Temperatura: -17.8 °C -12.6 °C -10.6 °C
Punt de rosada: -17.8 °C -14.4 °C -13.3 °C
Humitat: Humidity % 64 % 72 %
Wind Speed: 0 km/h 0 km/h 6.8 km/h
RĂ fegues de vent: 0 km/h - -
Vent:- - SE
Pression baro: 0 hPa 34222.3 hPa -
Precipitacions: 0 mm    
Historical Graphs
 
 
Dades de taula per Marc 21, 2016
Temps Temperatura Punt de rosada Pression baro Vent Wind Speed RĂ fegues de vent Humitat Rainfall Rate (Hourly)
-17.8 °C -17.8 °C 0 hPa Calm     Humidity % 0 mm
04:35 -10.1 °C -11.7 °C 34395 hPa SSE 2.6 km/h 2.6 km/h 82 % 0 mm
04:45 -10.2 °C -12.1 °C 34395 hPa SE 5.1 km/h 12.9 km/h 80 % 0 mm
04:55 -10.3 °C -12.2 °C 34361.1 hPa ESE 5.1 km/h 10.3 km/h 80 % 0 mm
05:05 -9.9 °C -12.1 °C 34361.1 hPa East 2.6 km/h 5.1 km/h 78 % 0 mm
05:15 -9.9 °C -12.2 °C 34361.1 hPa South 2.6 km/h 7.7 km/h 76 % 0 mm
05:25 -9.8 °C -12.3 °C 34361.1 hPa SSE 2.6 km/h 10.3 km/h 75 % 0 mm
05:35 -9.8 °C -12.4 °C 34361.1 hPa ESE 5.1 km/h 10.3 km/h 74 % 0 mm
05:45 -9.6 °C -12.3 °C 34361.1 hPa ESE 5.1 km/h 10.3 km/h 73 % 0 mm
05:55 -9.6 °C -12.3 °C 34361.1 hPa Calm   10.3 km/h 72 % 0 mm
06:05 -9.6 °C -12.3 °C 34361.1 hPa ESE 5.1 km/h 10.3 km/h 72 % 0 mm
06:15 -9.5 °C -12.6 °C 34361.1 hPa ESE 7.7 km/h 15.6 km/h 69 % 0 mm
06:25 -9.5 °C -12.6 °C 34361.1 hPa East 2.6 km/h 10.3 km/h 69 % 0 mm
06:35 -9.4 °C -12.4 °C 34361.1 hPa Calm   7.7 km/h 70 % 0 mm
06:45 -9.2 °C -12.3 °C 34327.3 hPa NE 5.1 km/h 7.7 km/h 69 % 0 mm
06:55 -9.2 °C -12.4 °C 34327.3 hPa ENE 5.1 km/h 7.7 km/h 68 % 0 mm
07:05 -8.9 °C -12.2 °C 34327.3 hPa East 5.1 km/h 10.3 km/h 68 % 0 mm
07:15 -8.8 °C -12.3 °C 34293.4 hPa ESE 5.1 km/h 12.9 km/h 66 % 0 mm
07:45 -9.1 °C -12.8 °C 34327.3 hPa ESE 2.6 km/h 7.7 km/h 64 % 0 mm
08:15 -9.4 °C -12.7 °C 34327.3 hPa ESE 7.7 km/h 12.9 km/h 68 % 0 mm
08:25 -9.4 °C -12.6 °C 34327.3 hPa SE 5.1 km/h 15.6 km/h 69 % 0 mm
08:35 -9.4 °C -12.4 °C 34327.3 hPa SSE 5.1 km/h 12.9 km/h 70 % 0 mm
08:45 -9.6 °C -12.4 °C 34327.3 hPa South 5.1 km/h 7.7 km/h 71 % 0 mm
08:55 -9.7 °C -12.6 °C 34293.4 hPa SW 2.6 km/h 10.3 km/h 71 % 0 mm
15:03 -9.8 °C -12.6 °C 34293.4 hPa SSW 10.3 km/h 10.3 km/h 72 % 0 mm
15:08 -9.8 °C -12.7 °C 34293.4 hPa SSW 15 km/h 15 km/h 71 % 0 mm
15:13 -9.7 °C -12.6 °C 34293.4 hPa SW 15 km/h 15 km/h 71 % 0 mm
15:18 -9.4 °C -12.2 °C 34293.4 hPa WSW 9 km/h 9 km/h 72 % 0 mm
15:23 -9.2 °C -12.1 °C 34293.4 hPa WSW 14.5 km/h 14.5 km/h 71 % 0 mm
15:28 -9.2 °C -12.3 °C 34293.4 hPa SW 15 km/h 15 km/h 69 % 0 mm
15:33 -9.1 °C -12.2 °C 34293.4 hPa SW 11.9 km/h 11.9 km/h 69 % 0 mm
15:38 -8.6 °C -11.8 °C 34256.2 hPa SW 8 km/h 8 km/h 69 % 0 mm
15:43 -8.6 °C -12 °C 34256.2 hPa NNW 14.5 km/h 14.5 km/h 67 % 0 mm
15:48 -8.9 °C -12.4 °C 34256.2 hPa ESE 11.9 km/h 11.9 km/h 66 % 0 mm
15:53 -9.3 °C -12.7 °C 34256.2 hPa ESE 15 km/h 15.3 km/h 67 % 0 mm
15:58 -9.4 °C -12.8 °C 34256.2 hPa NE 17.9 km/h 17.9 km/h 67 % 0 mm
16:03 -9.6 °C -12.9 °C 34256.2 hPa East 17.9 km/h 17.9 km/h 67 % 0 mm
16:08 -9.7 °C -13 °C 34256.2 hPa ESE 23.8 km/h 23.8 km/h 67 % 0 mm
16:13 -9.7 °C -13.1 °C 34256.2 hPa South 17.9 km/h 17.9 km/h 67 % 0 mm
16:18 -9.7 °C -12.9 °C 34256.2 hPa SSE 11.9 km/h 11.9 km/h 68 % 0 mm
16:23 -9.7 °C -12.9 °C 34256.2 hPa East 11.9 km/h 11.9 km/h 68 % 0 mm
16:28 -9.8 °C -13 °C 34256.2 hPa ESE 14.5 km/h 14.5 km/h 68 % 0 mm
16:33 -9.8 °C -13.1 °C 34256.2 hPa ENE 11.9 km/h 11.9 km/h 68 % 0 mm
16:38 -9.9 °C -13.1 °C 34222.3 hPa ESE 15 km/h 15 km/h 68 % 0 mm
16:43 -9.8 °C -13 °C 34222.3 hPa ENE 9 km/h 9 km/h 68 % 0 mm
16:48 -9.8 °C -13.1 °C 34222.3 hPa NE 17.9 km/h 17.9 km/h 68 % 0 mm
16:53 -9.9 °C -13.1 °C 34256.2 hPa ENE 20.9 km/h 20.9 km/h 68 % 0 mm
16:58 -10 °C -13.2 °C 34256.2 hPa ESE 17.9 km/h 17.9 km/h 68 % 0 mm
17:03 -10.1 °C -13.3 °C 34256.2 hPa East 17.9 km/h 17.9 km/h 68 % 0 mm
17:08 -10.1 °C -13.3 °C 34293.4 hPa East 20.9 km/h 20.9 km/h 68 % 0 mm
17:13 -10.1 °C -13.3 °C 34293.4 hPa SE 11.9 km/h 11.9 km/h 68 % 0 mm
17:18 -10.1 °C -13.3 °C 34293.4 hPa SE 16.1 km/h 16.1 km/h 68 % 0 mm
17:23 -10.1 °C -13.3 °C 34256.2 hPa ESE 12.7 km/h 12.7 km/h 68 % 0 mm
17:28 -10.1 °C -13.3 °C 34256.2 hPa ESE 20.9 km/h 20.9 km/h 68 % 0 mm
17:33 -10.2 °C -13.4 °C 34256.2 hPa ENE 15 km/h 15 km/h 68 % 0 mm
17:38 -10.2 °C -13.4 °C 34256.2 hPa East 17.9 km/h 17.9 km/h 68 % 0 mm
17:43 -10.2 °C -13.4 °C 34256.2 hPa East 9 km/h 9 km/h 68 % 0 mm
17:48 -10.2 °C -13.4 °C 34256.2 hPa East 11.9 km/h 11.9 km/h 68 % 0 mm
17:53 -10.2 °C -13.4 °C 34256.2 hPa ESE 11.9 km/h 11.9 km/h 68 % 0 mm
17:58 -10.3 °C -13.5 °C 34256.2 hPa ESE 9 km/h 9 km/h 68 % 0 mm
18:03 -10.3 °C -13.6 °C 34256.2 hPa SE 9 km/h 9 km/h 68 % 0 mm
18:08 -10.3 °C -13.6 °C 34256.2 hPa ESE 9 km/h 9 km/h 68 % 0 mm
18:13 -10.4 °C -13.6 °C 34256.2 hPa SSE 6 km/h 6 km/h 68 % 0 mm
18:18 -10.4 °C -13.7 °C 34256.2 hPa WSW 6 km/h   68 % 0 mm
18:23 -10.4 °C -13.7 °C 34256.2 hPa Calm     68 % 0 mm
18:28 -10.5 °C -13.7 °C 34256.2 hPa Calm     68 % 0 mm
18:33 -10.6 °C -13.8 °C 34256.2 hPa NNE 6 km/h 6 km/h 68 % 0 mm
18:38 -10.6 °C -13.8 °C 34256.2 hPa Calm     68 % 0 mm
18:43 -10.6 °C -13.8 °C 34256.2 hPa Calm     68 % 0 mm
18:48 -10.6 °C -13.8 °C 34256.2 hPa NE 3.1 km/h 3.1 km/h 68 % 0 mm
18:53 -10.6 °C -13.7 °C 34222.3 hPa NE 3.1 km/h 3.1 km/h 69 % 0 mm
18:58 -10.6 °C -13.8 °C 34222.3 hPa NE 6.3 km/h 6.3 km/h 68 % 0 mm
19:03 -10.6 °C -13.8 °C 34222.3 hPa NE 2.3 km/h   68 % 0 mm
19:08 -10.6 °C -13.8 °C 34256.2 hPa NE 3.1 km/h   68 % 0 mm
19:13 -10.7 °C -13.8 °C 34256.2 hPa Calm     68 % 0 mm
19:18 -10.7 °C -13.8 °C 34256.2 hPa Calm     68 % 0 mm
19:23 -10.7 °C -13.7 °C 34256.2 hPa Calm     69 % 0 mm
19:28 -10.7 °C -13.7 °C 34256.2 hPa NE 3.1 km/h   69 % 0 mm
19:33 -10.7 °C -13.8 °C 34256.2 hPa Calm     69 % 0 mm
19:38 -10.8 °C -13.8 °C 34256.2 hPa Calm     69 % 0 mm
19:43 -10.8 °C -13.7 °C 34256.2 hPa Calm     70 % 0 mm
19:48 -10.8 °C -13.6 °C 34256.2 hPa Calm     71 % 0 mm
19:53 -10.8 °C -13.5 °C 34222.3 hPa Calm     72 % 0 mm
19:58 -10.8 °C -13.4 °C 34222.3 hPa Calm     73 % 0 mm
20:03 -10.8 °C -13.4 °C 34222.3 hPa Calm     73 % 0 mm
20:08 -10.8 °C -13.3 °C 34256.2 hPa Calm     74 % 0 mm
20:13 -10.8 °C -13.4 °C 34256.2 hPa Calm     73 % 0 mm
20:18 -10.9 °C -13.4 °C 34256.2 hPa Calm     74 % 0 mm
20:23 -10.9 °C -13.4 °C 34256.2 hPa Calm     74 % 0 mm
20:28 -10.9 °C -13.4 °C 34256.2 hPa WSW 3.1 km/h   74 % 0 mm
20:33 -10.9 °C -13.3 °C 34256.2 hPa Calm     75 % 0 mm
20:38 -11 °C -13.4 °C 34256.2 hPa Calm     75 % 0 mm
20:48 -11.1 °C -13.5 °C 34256.2 hPa Calm     75 % 0 mm
20:53 -11.2 °C -13.4 °C 34256.2 hPa NNE 6 km/h 6 km/h 76 % 0 mm
20:58 -11.2 °C -13.4 °C 34256.2 hPa NNE 6 km/h 6 km/h 77 % 0 mm
21:03 -11.3 °C -13.4 °C 34256.2 hPa NNW 6.3 km/h 6.3 km/h 77 % 0 mm
21:08 -11.4 °C -13.6 °C 34256.2 hPa NNE 3.1 km/h 3.1 km/h 77 % 0 mm
21:13 -11.4 °C -13.6 °C 34256.2 hPa NNW 11.9 km/h 11.9 km/h 77 % 0 mm
21:18 -11.5 °C -13.7 °C 34256.2 hPa NNE 8.5 km/h 8.5 km/h 77 % 0 mm
21:23 -11.6 °C -13.7 °C 34256.2 hPa NE 9 km/h 9 km/h 77 % 0 mm
21:28 -11.6 °C -13.8 °C 34256.2 hPa NE 9 km/h 9 km/h 77 % 0 mm
21:33 -11.6 °C -13.7 °C 34256.2 hPa NNE 6 km/h 6 km/h 78 % 0 mm
21:43 -11.7 °C -13.8 °C 34222.3 hPa NW 6 km/h 6 km/h 78 % 0 mm
21:48 -11.8 °C -13.8 °C 34222.3 hPa NNE 4.2 km/h 4.2 km/h 78 % 0 mm
21:53 -11.8 °C -13.9 °C 34256.2 hPa NNE 6 km/h 6 km/h 78 % 0 mm
21:58 -11.9 °C -13.9 °C 34256.2 hPa NNE 3.1 km/h 3.1 km/h 78 % 0 mm
22:03 -11.9 °C -13.9 °C 34256.2 hPa NNW 6 km/h 6 km/h 79 % 0 mm
22:08 -11.9 °C -13.9 °C 34256.2 hPa NW 3.1 km/h 3.7 km/h 79 % 0 mm
22:13 -12 °C -13.9 °C 34256.2 hPa WNW 9 km/h 9 km/h 79 % 0 mm
22:18 -12 °C -13.9 °C 34256.2 hPa West 9 km/h 9 km/h 79 % 0 mm
22:23 -12 °C -13.9 °C 34256.2 hPa NNW 9.3 km/h 9.3 km/h 79 % 0 mm
22:28 -12 °C -13.9 °C 34256.2 hPa ENE 11.9 km/h 11.9 km/h 79 % 0 mm
22:33 -12.1 °C -14 °C 34256.2 hPa North 6 km/h 6 km/h 79 % 0 mm
22:38 -12.1 °C -13.9 °C 34256.2 hPa North 3.7 km/h 3.7 km/h 80 % 0 mm
22:43 -12.2 °C -14.1 °C 34256.2 hPa North 3.7 km/h 3.7 km/h 79 % 0 mm
22:48 -12.3 °C -14.2 °C 34256.2 hPa SW 4.2 km/h 4.2 km/h 79 % 0 mm
22:53 -12.4 °C -14.3 °C 34256.2 hPa SW 3.1 km/h 3.7 km/h 79 % 0 mm
22:58 -12.4 °C -14.4 °C 34256.2 hPa SW 3.1 km/h 3.7 km/h 79 % 0 mm
23:08 -12.4 °C -14.2 °C 34256.2 hPa SW 6.3 km/h   81 % 0 mm
23:13 -12.4 °C -14.2 °C 34256.2 hPa SW 6.3 km/h   81 % 0 mm
23:18 -12.5 °C -14.3 °C 34256.2 hPa SW 6.3 km/h   80 % 0 mm
23:23 -12.5 °C -14.1 °C 34256.2 hPa Calm     82 % 0 mm
23:28 -12.5 °C -14.1 °C 34256.2 hPa Calm     82 % 0 mm
23:38 -12.6 °C -14.2 °C 34256.2 hPa Calm     82 % 0 mm
23:43 -12.6 °C -14.2 °C 34256.2 hPa Calm     82 % 0 mm
Meteo Sesrovires
Elogis d' Weather Underground - 1.25 mb

Guio original per  Jim McMurry - jmcmurry@mwt.net Adaptat per a la plantilla per  Wim van der Kuil - Leuven-Template.eu

Trobareu la nostra informacio del temps tambe a:

Weather Underground

AWEKAS